createdAt,value
2022-08-22T00:01:14.720Z,19.90
2022-08-22T00:02:45.628Z,21.50
2022-08-22T00:03:10.105Z,21.60
2022-08-22T00:04:11.017Z,19.90
2022-08-22T00:07:16.613Z,19.90
2022-08-22T00:10:08.190Z,19.90
2022-08-22T00:12:46.006Z,19.90
2022-08-22T00:15:42.160Z,19.90
2022-08-22T00:18:10.819Z,20.00
2022-08-22T00:20:55.244Z,20.00
2022-08-22T00:23:37.265Z,20.00
2022-08-22T00:26:09.388Z,20.00
2022-08-22T00:28:44.451Z,19.90
2022-08-22T00:31:24.337Z,19.90
2022-08-22T00:34:08.695Z,19.80
2022-08-22T00:36:58.345Z,19.80
2022-08-22T00:39:35.468Z,19.70
2022-08-22T00:42:29.311Z,19.70
2022-08-22T00:45:31.515Z,19.70
2022-08-22T00:48:27.156Z,19.70
2022-08-22T00:51:25.166Z,19.70
2022-08-22T00:54:04.364Z,19.70
2022-08-22T00:56:51.723Z,19.80
2022-08-22T00:59:30.664Z,19.70
2022-08-22T01:02:40.749Z,19.70
2022-08-22T01:05:17.126Z,19.70
2022-08-22T01:08:04.990Z,19.70
2022-08-22T01:10:58.311Z,19.70
2022-08-22T01:13:34.267Z,19.70
2022-08-22T01:16:13.294Z,19.70
2022-08-22T01:19:08.512Z,19.70
2022-08-22T01:22:04.198Z,19.70
2022-08-22T01:25:22.345Z,19.70
2022-08-22T01:28:12.571Z,19.60
2022-08-22T01:31:12.504Z,19.60
2022-08-22T01:34:13.434Z,19.60
2022-08-22T01:37:11.228Z,19.60
2022-08-22T01:39:51.325Z,19.70
2022-08-22T01:42:38.341Z,19.60
2022-08-22T01:45:19.447Z,19.60
2022-08-22T01:47:54.808Z,19.70
2022-08-22T01:50:30.210Z,19.60
2022-08-22T01:53:09.246Z,19.60
2022-08-22T01:55:55.725Z,19.50
2022-08-22T01:58:30.477Z,19.40
2022-08-22T02:01:00.248Z,19.50
2022-08-22T02:04:08.857Z,19.30
2022-08-22T02:06:44.552Z,19.40
2022-08-22T02:09:23.680Z,19.30
2022-08-22T02:12:21.381Z,19.30
2022-08-22T02:15:03.218Z,19.30
2022-08-22T02:17:35.601Z,19.30
2022-08-22T02:20:20.356Z,19.30
2022-08-22T02:23:07.795Z,19.30
2022-08-22T02:25:52.676Z,19.30
2022-08-22T02:28:56.560Z,19.30
2022-08-22T02:31:58.146Z,19.20
2022-08-22T02:35:09.501Z,19.20
2022-08-22T02:37:48.683Z,19.20
2022-08-22T02:40:39.102Z,19.10
2022-08-22T02:43:14.791Z,19.10
2022-08-22T02:46:00.642Z,19.20
2022-08-22T02:48:52.724Z,19.20
2022-08-22T02:51:47.016Z,19.20
2022-08-22T02:54:31.166Z,19.30
2022-08-22T02:57:14.701Z,19.30
2022-08-22T03:00:25.035Z,19.30
2022-08-22T03:03:05.202Z,19.20
2022-08-22T03:05:37.677Z,19.30
2022-08-22T03:08:21.122Z,19.20
2022-08-22T03:11:10.712Z,19.20
2022-08-22T03:13:56.771Z,19.10
2022-08-22T03:16:54.458Z,19.10
2022-08-22T03:19:46.461Z,19.10
2022-08-22T03:22:44.015Z,19.10
2022-08-22T03:25:27.155Z,19.10
2022-08-22T03:28:15.571Z,19.20
2022-08-22T03:30:56.119Z,19.10
2022-08-22T03:33:29.510Z,19.10
2022-08-22T03:36:12.262Z,19.10
2022-08-22T03:39:03.086Z,19.20
2022-08-22T03:41:43.959Z,19.20
2022-08-22T03:44:20.297Z,19.20
2022-08-22T03:46:59.160Z,19.20
2022-08-22T03:50:03.715Z,19.20
2022-08-22T03:53:02.733Z,19.20
2022-08-22T03:56:00.796Z,19.10
2022-08-22T03:59:00.722Z,19.20
2022-08-22T04:01:51.396Z,19.10
2022-08-22T04:05:01.132Z,19.10
2022-08-22T04:07:59.057Z,19.10
2022-08-22T04:11:07.627Z,19.00
2022-08-22T04:14:11.626Z,19.00
2022-08-22T04:16:58.085Z,19.00
2022-08-22T04:19:48.931Z,19.00
2022-08-22T04:22:59.834Z,18.90
2022-08-22T04:25:53.326Z,18.90
2022-08-22T04:28:35.722Z,19.10
2022-08-22T04:31:11.371Z,19.00
2022-08-22T04:34:01.594Z,19.00
2022-08-22T04:36:45.855Z,19.00
2022-08-22T04:39:30.267Z,19.10
2022-08-22T04:42:28.795Z,19.10
2022-08-22T04:44:52.499Z,19.00
2022-08-22T04:47:43.250Z,19.00
2022-08-22T04:50:19.175Z,19.00
2022-08-22T04:52:53.346Z,19.00
2022-08-22T04:55:38.808Z,19.00
2022-08-22T04:58:12.996Z,19.00
2022-08-22T05:00:56.918Z,19.00
2022-08-22T05:03:28.709Z,19.00
2022-08-22T05:05:59.298Z,18.90
2022-08-22T05:08:30.299Z,18.90
2022-08-22T05:10:58.325Z,18.90
2022-08-22T05:13:33.569Z,18.90
2022-08-22T05:16:04.539Z,19.00
2022-08-22T05:18:38.465Z,19.00
2022-08-22T05:21:08.425Z,19.00
2022-08-22T05:23:46.270Z,19.20
2022-08-22T05:26:15.676Z,19.10
2022-08-22T05:28:53.309Z,19.20
2022-08-22T05:31:46.384Z,19.20
2022-08-22T05:34:25.382Z,19.20
2022-08-22T05:36:59.969Z,19.20
2022-08-22T05:39:29.807Z,19.20
2022-08-22T05:41:58.688Z,19.30
2022-08-22T05:44:34.727Z,19.30
2022-08-22T05:47:03.395Z,19.40
2022-08-22T05:49:40.748Z,19.40
2022-08-22T05:52:29.288Z,19.40
2022-08-22T05:55:27.608Z,19.40
2022-08-22T05:58:21.529Z,19.50
2022-08-22T06:00:54.003Z,19.50
2022-08-22T06:03:34.122Z,19.50
2022-08-22T06:06:13.266Z,19.50
2022-08-22T06:08:44.326Z,19.60
2022-08-22T06:11:14.153Z,19.60
2022-08-22T06:13:47.292Z,19.60
2022-08-22T06:16:54.657Z,19.70
2022-08-22T06:19:24.276Z,19.60
2022-08-22T06:21:53.944Z,19.60
2022-08-22T06:24:26.097Z,19.70
2022-08-22T06:26:58.237Z,19.80
2022-08-22T06:29:40.442Z,19.80
2022-08-22T06:32:16.510Z,19.70
2022-08-22T06:35:04.083Z,19.70
2022-08-22T06:37:36.608Z,19.70
2022-08-22T06:40:06.502Z,19.70
2022-08-22T06:42:39.702Z,19.70
2022-08-22T06:45:25.266Z,19.70
2022-08-22T06:48:00.626Z,19.60
2022-08-22T06:50:37.462Z,19.60
2022-08-22T06:53:15.562Z,19.70
2022-08-22T06:55:50.762Z,19.70
2022-08-22T06:58:25.926Z,19.80
2022-08-22T07:01:11.251Z,19.90
2022-08-22T07:03:50.084Z,19.90
2022-08-22T07:06:21.028Z,20.20
2022-08-22T07:08:53.445Z,20.10
2022-08-22T07:11:36.641Z,20.20
2022-08-22T07:14:07.896Z,20.30
2022-08-22T07:17:01.369Z,20.50
2022-08-22T07:19:35.032Z,20.50
2022-08-22T07:22:11.890Z,20.50
2022-08-22T07:24:46.836Z,20.60
2022-08-22T07:27:19.768Z,20.60
2022-08-22T07:30:04.084Z,20.60
2022-08-22T07:33:23.683Z,20.50
2022-08-22T07:35:53.607Z,20.40
2022-08-22T07:38:43.797Z,20.50
2022-08-22T07:41:29.046Z,20.60
2022-08-22T07:44:15.424Z,20.90
2022-08-22T07:47:02.741Z,20.90
2022-08-22T07:49:45.858Z,21.10
2022-08-22T07:52:18.992Z,21.30
2022-08-22T07:54:48.637Z,21.50
2022-08-22T07:57:24.173Z,21.70
2022-08-22T07:59:57.513Z,21.70
2022-08-22T08:02:26.460Z,21.90
2022-08-22T08:04:56.777Z,22.10
2022-08-22T08:07:27.471Z,22.30
2022-08-22T08:10:00.478Z,22.10
2022-08-22T08:12:34.012Z,22.20
2022-08-22T08:15:03.933Z,22.10
2022-08-22T08:17:33.122Z,22.10
2022-08-22T08:20:05.853Z,22.20
2022-08-22T08:22:33.920Z,22.20
2022-08-22T08:25:02.206Z,22.30
2022-08-22T08:27:53.734Z,22.40
2022-08-22T08:30:34.474Z,22.50
2022-08-22T08:33:24.365Z,22.70
2022-08-22T08:36:02.326Z,22.90
2022-08-22T08:38:49.425Z,23.30
2022-08-22T08:41:47.372Z,23.80
2022-08-22T08:44:38.012Z,24.40
2022-08-22T08:47:26.316Z,24.90
2022-08-22T08:50:17.065Z,25.50
2022-08-22T08:53:27.390Z,25.50
2022-08-22T08:56:19.728Z,25.50
2022-08-22T08:59:14.846Z,25.50
2022-08-22T09:01:57.243Z,25.50
2022-08-22T09:04:48.982Z,25.50
2022-08-22T09:07:47.017Z,25.60
2022-08-22T09:10:31.082Z,26.00
2022-08-22T09:13:12.109Z,26.60
2022-08-22T09:15:58.456Z,27.20
2022-08-22T09:19:02.357Z,27.00
2022-08-22T09:21:42.049Z,27.10
2022-08-22T09:24:52.390Z,26.90
2022-08-22T09:27:33.977Z,26.80
2022-08-22T09:30:11.562Z,26.90
2022-08-22T09:32:48.491Z,27.00
2022-08-22T09:35:19.279Z,27.10
2022-08-22T09:37:52.347Z,26.80
2022-08-22T09:40:31.533Z,26.60
2022-08-22T09:43:21.367Z,26.80
2022-08-22T09:46:32.129Z,27.00
2022-08-22T09:49:11.836Z,26.70
2022-08-22T09:51:49.534Z,26.40
2022-08-22T09:54:32.892Z,26.30
2022-08-22T09:57:14.033Z,26.20
2022-08-22T10:00:09.621Z,26.00
2022-08-22T10:03:02.887Z,26.00
2022-08-22T10:05:35.183Z,26.20
2022-08-22T10:08:12.994Z,26.30
2022-08-22T10:10:56.320Z,26.40
2022-08-22T10:14:00.469Z,26.50
2022-08-22T10:16:50.275Z,26.40
2022-08-22T10:19:22.770Z,26.30
2022-08-22T10:22:08.365Z,26.60
2022-08-22T10:25:02.650Z,26.70
2022-08-22T10:27:49.162Z,26.80
2022-08-22T10:30:32.518Z,26.70
2022-08-22T10:33:02.305Z,26.60
2022-08-22T10:35:55.522Z,26.40
2022-08-22T10:38:25.411Z,26.10
2022-08-22T10:41:01.511Z,26.10
2022-08-22T10:43:56.568Z,26.20
2022-08-22T10:46:35.961Z,26.30
2022-08-22T10:49:28.160Z,26.40
2022-08-22T10:52:18.616Z,26.60
2022-08-22T10:55:15.225Z,26.80
2022-08-22T10:57:58.211Z,26.70
2022-08-22T11:00:46.465Z,26.80
2022-08-22T11:03:28.425Z,27.30
2022-08-22T11:06:01.558Z,27.60
2022-08-22T11:08:47.274Z,27.70
2022-08-22T11:11:39.616Z,27.60
2022-08-22T11:14:25.299Z,27.80
2022-08-22T11:17:28.815Z,27.90
2022-08-22T11:20:12.755Z,28.00
2022-08-22T11:23:13.593Z,28.20
2022-08-22T11:26:01.800Z,28.50
2022-08-22T11:29:26.259Z,28.60
2022-08-22T11:32:17.315Z,28.60
2022-08-22T11:35:16.377Z,28.10
2022-08-22T11:37:47.835Z,28.10
2022-08-22T11:40:37.632Z,28.30
2022-08-22T11:43:37.762Z,28.30
2022-08-22T11:46:29.419Z,28.30
2022-08-22T11:48:59.761Z,28.20
2022-08-22T11:51:57.286Z,28.10
2022-08-22T11:54:36.744Z,28.20
2022-08-22T11:57:13.815Z,28.50
2022-08-22T12:00:05.848Z,29.00
2022-08-22T12:02:51.667Z,29.20
2022-08-22T12:05:26.702Z,29.30
2022-08-22T12:08:13.545Z,29.20
2022-08-22T12:11:13.715Z,29.00
2022-08-22T12:13:46.731Z,29.10
2022-08-22T12:16:48.191Z,28.80
2022-08-22T12:19:24.206Z,28.80
2022-08-22T12:22:34.624Z,28.60
2022-08-22T12:25:29.467Z,28.40
2022-08-22T12:28:13.923Z,28.40
2022-08-22T12:31:13.944Z,28.40
2022-08-22T12:34:03.781Z,28.80
2022-08-22T12:37:02.866Z,29.20
2022-08-22T12:39:47.250Z,29.40
2022-08-22T12:42:33.948Z,29.50
2022-08-22T12:45:13.156Z,29.30
2022-08-22T12:48:12.634Z,29.20
2022-08-22T12:50:49.030Z,29.30
2022-08-22T12:53:32.315Z,29.30
2022-08-22T12:56:13.902Z,29.30
2022-08-22T12:58:59.034Z,29.40
2022-08-22T13:01:34.016Z,29.60
2022-08-22T13:04:04.625Z,29.60
2022-08-22T13:06:37.936Z,29.60
2022-08-22T13:09:37.149Z,29.70
2022-08-22T13:12:27.698Z,29.50
2022-08-22T13:15:34.219Z,29.10
2022-08-22T13:18:28.770Z,28.80
2022-08-22T13:20:58.728Z,28.90
2022-08-22T13:23:40.003Z,29.30
2022-08-22T13:26:31.691Z,29.80
2022-08-22T13:32:00.151Z,29.80
2022-08-22T13:34:38.412Z,29.80
2022-08-22T13:37:10.578Z,30.10
2022-08-22T13:39:43.614Z,30.40
2022-08-22T13:42:27.820Z,31.00
2022-08-22T13:45:04.372Z,31.70
2022-08-22T13:47:35.594Z,32.50
2022-08-22T13:50:19.002Z,33.20
2022-08-22T13:53:01.290Z,33.70
2022-08-22T13:55:51.672Z,34.10
2022-08-22T13:58:33.282Z,33.70
2022-08-22T14:01:07.704Z,33.80
2022-08-22T14:03:49.258Z,33.90
2022-08-22T14:07:16.883Z,33.50
2022-08-22T14:10:06.557Z,33.30
2022-08-22T14:13:11.672Z,33.20
2022-08-22T14:15:41.597Z,32.10
2022-08-22T14:18:20.494Z,31.10
2022-08-22T14:21:16.376Z,31.30
2022-08-22T14:23:45.213Z,31.10
2022-08-22T14:26:33.106Z,30.60
2022-08-22T14:29:08.052Z,30.00
2022-08-22T14:31:36.104Z,29.70
2022-08-22T14:34:10.280Z,29.50
2022-08-22T14:36:54.706Z,29.50
2022-08-22T14:39:35.131Z,30.50
2022-08-22T14:42:05.967Z,31.60
2022-08-22T14:45:06.788Z,32.90
2022-08-22T14:47:55.105Z,33.90
2022-08-22T14:50:40.835Z,34.30
2022-08-22T14:53:09.459Z,34.70
2022-08-22T14:55:39.252Z,34.10
2022-08-22T14:58:18.897Z,34.00
2022-08-22T15:00:57.353Z,34.20
2022-08-22T15:03:32.206Z,34.20
2022-08-22T15:06:03.534Z,34.00
2022-08-22T15:08:42.210Z,34.10
2022-08-22T15:11:32.088Z,34.00
2022-08-22T15:14:04.509Z,34.00
2022-08-22T15:16:43.409Z,34.00
2022-08-22T15:19:35.366Z,34.40
2022-08-22T15:22:27.507Z,34.60
2022-08-22T15:25:12.157Z,34.90
2022-08-22T15:27:53.391Z,35.00
2022-08-22T15:30:38.439Z,35.30
2022-08-22T15:33:50.889Z,34.90
2022-08-22T15:36:26.367Z,34.60
2022-08-22T15:39:18.270Z,34.70
2022-08-22T15:41:47.910Z,35.10
2022-08-22T15:44:30.816Z,35.30
2022-08-22T15:47:25.983Z,35.30
2022-08-22T15:50:20.786Z,35.30
2022-08-22T15:53:06.836Z,35.10
2022-08-22T15:55:35.296Z,34.20
2022-08-22T15:58:20.614Z,33.30
2022-08-22T16:01:19.196Z,31.60
2022-08-22T16:04:14.262Z,30.30
2022-08-22T16:06:51.114Z,29.20
2022-08-22T16:09:44.532Z,28.70
2022-08-22T16:12:33.059Z,28.40
2022-08-22T16:15:03.002Z,28.30
2022-08-22T16:17:29.789Z,28.20
2022-08-22T16:20:19.563Z,28.10
2022-08-22T16:22:59.127Z,28.10
2022-08-22T16:25:45.737Z,28.00
2022-08-22T16:28:56.313Z,27.90
2022-08-22T16:31:19.395Z,27.80
2022-08-22T16:33:47.231Z,27.70
2022-08-22T16:36:37.356Z,27.60
2022-08-22T16:39:12.415Z,27.60
2022-08-22T16:41:43.866Z,27.50
2022-08-22T16:44:29.733Z,27.40
2022-08-22T16:47:14.943Z,27.40
2022-08-22T16:49:50.835Z,27.30
2022-08-22T16:52:20.969Z,27.30
2022-08-22T16:54:49.644Z,27.20
2022-08-22T16:57:59.417Z,27.10
2022-08-22T17:00:34.007Z,27.00
2022-08-22T17:03:21.215Z,26.90
2022-08-22T17:06:02.929Z,26.90
2022-08-22T17:09:09.156Z,26.80
2022-08-22T17:12:11.834Z,26.70
2022-08-22T17:15:05.538Z,26.70
2022-08-22T17:17:51.186Z,26.60
2022-08-22T17:20:36.737Z,26.60
2022-08-22T17:23:18.904Z,26.50
2022-08-22T17:25:51.728Z,26.60
2022-08-22T17:28:24.383Z,26.60
2022-08-22T17:31:13.126Z,26.60
2022-08-22T17:34:05.534Z,26.50
2022-08-22T17:37:02.215Z,26.40
2022-08-22T17:39:55.570Z,26.30
2022-08-22T17:42:41.800Z,26.20
2022-08-22T17:46:05.389Z,26.10
2022-08-22T17:48:48.079Z,26.10
2022-08-22T17:51:28.761Z,26.10
2022-08-22T17:54:14.342Z,26.10
2022-08-22T17:56:48.097Z,26.10
2022-08-22T17:59:34.038Z,26.10
2022-08-22T18:02:16.372Z,26.00
2022-08-22T18:04:52.397Z,26.00
2022-08-22T18:07:48.402Z,26.00
2022-08-22T18:10:15.276Z,25.90
2022-08-22T18:12:49.637Z,25.80
2022-08-22T18:15:46.441Z,25.70
2022-08-22T18:18:59.278Z,25.70
2022-08-22T18:21:39.054Z,25.60
2022-08-22T18:24:12.331Z,25.50
2022-08-22T18:26:41.890Z,25.50
2022-08-22T18:29:15.974Z,25.40
2022-08-22T18:32:08.638Z,25.40
2022-08-22T18:34:59.727Z,25.40
2022-08-22T18:37:32.934Z,25.40
2022-08-22T18:40:22.384Z,25.50
2022-08-22T18:43:00.035Z,25.50
2022-08-22T18:45:46.186Z,25.50
2022-08-22T18:48:31.635Z,25.50
2022-08-22T18:51:27.823Z,25.50
2022-08-22T18:53:54.682Z,25.50
2022-08-22T18:56:28.617Z,25.40
2022-08-22T18:59:16.522Z,25.30
2022-08-22T19:01:57.015Z,25.30
2022-08-22T19:04:51.471Z,25.20
2022-08-22T19:07:51.209Z,25.10
2022-08-22T19:10:34.542Z,25.10
2022-08-22T19:13:17.075Z,25.10
2022-08-22T19:16:23.835Z,25.10
2022-08-22T19:19:17.189Z,25.10
2022-08-22T19:22:24.981Z,25.10
2022-08-22T19:25:26.302Z,25.00
2022-08-22T19:28:12.810Z,24.90
2022-08-22T19:30:46.195Z,24.70
2022-08-22T19:33:38.588Z,24.60
2022-08-22T19:36:12.095Z,24.50
2022-08-22T19:39:01.079Z,24.40
2022-08-22T19:41:52.355Z,24.40
2022-08-22T19:44:19.109Z,24.40
2022-08-22T19:47:26.372Z,24.40
2022-08-22T19:50:00.670Z,24.40
2022-08-22T19:52:47.009Z,24.30
2022-08-22T19:55:36.668Z,24.30
2022-08-22T19:58:20.487Z,24.20
2022-08-22T20:01:28.417Z,24.10
2022-08-22T20:04:03.853Z,24.00
2022-08-22T20:06:53.639Z,23.90
2022-08-22T20:09:49.252Z,23.90
2022-08-22T20:12:44.638Z,23.90
2022-08-22T20:15:19.666Z,23.80
2022-08-22T20:18:11.713Z,23.70
2022-08-22T20:20:38.769Z,23.60
2022-08-22T20:23:22.645Z,23.60
2022-08-22T20:25:56.031Z,23.60
2022-08-22T20:28:40.745Z,23.50
2022-08-22T20:31:23.242Z,23.50
2022-08-22T20:33:57.294Z,23.50
2022-08-22T20:36:28.019Z,23.40
2022-08-22T20:39:09.409Z,23.40
2022-08-22T20:41:42.775Z,23.30
2022-08-22T20:44:24.153Z,23.30
2022-08-22T20:46:57.517Z,23.20
2022-08-22T20:49:31.554Z,23.20
2022-08-22T20:52:00.862Z,23.10
2022-08-22T20:54:31.593Z,23.10
2022-08-22T20:57:02.909Z,23.00
2022-08-22T20:59:32.890Z,23.00
2022-08-22T21:02:26.064Z,23.00
2022-08-22T21:05:21.449Z,22.90
2022-08-22T21:08:15.998Z,22.90
2022-08-22T21:11:01.739Z,22.80
2022-08-22T21:13:33.766Z,22.80
2022-08-22T21:16:12.499Z,22.80
2022-08-22T21:18:42.670Z,22.70
2022-08-22T21:21:17.793Z,22.70
2022-08-22T21:23:51.319Z,22.70
2022-08-22T21:26:26.395Z,22.60
2022-08-22T21:29:04.655Z,22.60
2022-08-22T21:31:59.140Z,22.70
2022-08-22T21:34:36.489Z,22.70
2022-08-22T21:37:38.246Z,22.80
2022-08-22T21:40:23.034Z,22.80
2022-08-22T21:43:11.344Z,22.80
2022-08-22T21:45:38.246Z,22.80
2022-08-22T21:48:30.227Z,22.70
2022-08-22T21:51:17.008Z,22.60
2022-08-22T21:53:43.829Z,22.60
2022-08-22T21:56:14.368Z,22.50
2022-08-22T21:58:42.525Z,22.50
2022-08-22T22:01:31.571Z,22.50
2022-08-22T22:03:59.868Z,22.40
2022-08-22T22:06:27.401Z,22.50
2022-08-22T22:08:54.291Z,22.40
2022-08-22T22:11:21.388Z,22.50
2022-08-22T22:13:49.094Z,22.40
2022-08-22T22:16:24.528Z,22.40
2022-08-22T22:18:51.388Z,22.50
2022-08-22T22:21:18.357Z,22.30
2022-08-22T22:23:45.246Z,22.20
2022-08-22T22:26:12.458Z,22.20
2022-08-22T22:28:42.842Z,22.10
2022-08-22T22:31:09.974Z,22.10
2022-08-22T22:33:38.953Z,22.10
2022-08-22T22:36:19.679Z,22.10
2022-08-22T22:38:46.823Z,22.10
2022-08-22T22:41:14.192Z,22.10
2022-08-22T22:43:42.435Z,22.10
2022-08-22T22:46:09.360Z,22.00
2022-08-22T22:48:36.435Z,22.00
2022-08-22T22:51:12.269Z,21.90
2022-08-22T22:53:43.670Z,22.00
2022-08-22T22:56:14.293Z,22.00
2022-08-22T22:58:43.725Z,22.00
2022-08-22T23:01:20.678Z,22.00
2022-08-22T23:03:48.569Z,21.90
2022-08-22T23:06:21.134Z,22.00
2022-08-22T23:08:49.107Z,22.00
2022-08-22T23:11:34.175Z,22.10
2022-08-22T23:14:02.534Z,21.90
2022-08-22T23:16:35.189Z,22.00
2022-08-22T23:19:11.719Z,22.00
2022-08-22T23:21:39.748Z,21.90
2022-08-22T23:24:07.371Z,21.90
2022-08-22T23:26:34.647Z,21.90
2022-08-22T23:29:04.449Z,21.80
2022-08-22T23:31:42.526Z,21.90
2022-08-22T23:34:12.301Z,21.80
2022-08-22T23:36:41.762Z,21.80
2022-08-22T23:39:09.952Z,21.80
2022-08-22T23:41:36.998Z,21.70
2022-08-22T23:44:06.507Z,21.70
2022-08-22T23:46:34.911Z,21.60
2022-08-22T23:49:02.373Z,21.80
2022-08-22T23:51:29.604Z,21.60
2022-08-22T23:53:58.810Z,21.60
2022-08-22T23:56:30.422Z,21.60
2022-08-22T23:58:58.644Z,21.60
